sensor_id;sensor_type;location;lat;lon;timestamp;pressure;altitude;pressure_sealevel;temperature;humidity
69247;BME280;56358;56.328;43.992;2023-04-25T00:01:21;100818.41;;;12.78;44.56
69247;BME280;56358;56.328;43.992;2023-04-25T00:03:25;100814.53;;;12.70;45.23
69247;BME280;56358;56.328;43.992;2023-04-25T00:05:26;100777.41;;;12.41;44.92
69247;BME280;56358;56.328;43.992;2023-04-25T00:07:27;100777.06;;;12.46;45.21
69247;BME280;56358;56.328;43.992;2023-04-25T00:09:28;100809.16;;;12.59;45.62
69247;BME280;56358;56.328;43.992;2023-04-25T00:11:30;100782.56;;;12.33;45.88
69247;BME280;56358;56.328;43.992;2023-04-25T00:13:31;100789.78;;;12.33;45.97
69247;BME280;56358;56.328;43.992;2023-04-25T00:15:32;100813.38;;;12.40;46.38
69247;BME280;56358;56.328;43.992;2023-04-25T00:17:33;100815.56;;;12.35;46.64
69247;BME280;56358;56.328;43.992;2023-04-25T00:19:35;100816.03;;;12.29;46.53
69247;BME280;56358;56.328;43.992;2023-04-25T00:21:36;100801.16;;;12.14;46.69
69247;BME280;56358;56.328;43.992;2023-04-25T00:23:38;100807.88;;;12.19;47.30
69247;BME280;56358;56.328;43.992;2023-04-25T00:25:39;100834.97;;;12.28;47.23
69247;BME280;56358;56.328;43.992;2023-04-25T00:27:40;100817.50;;;12.33;46.90
69247;BME280;56358;56.328;43.992;2023-04-25T00:29:42;100816.91;;;12.30;47.32
69247;BME280;56358;56.328;43.992;2023-04-25T00:31:42;100732.47;;;11.87;47.30
69247;BME280;56358;56.328;43.992;2023-04-25T00:33:43;100821.16;;;12.32;47.33
69247;BME280;56358;56.328;43.992;2023-04-25T00:35:44;100825.06;;;12.28;47.59
69247;BME280;56358;56.328;43.992;2023-04-25T00:37:45;100799.53;;;12.22;48.08
69247;BME280;56358;56.328;43.992;2023-04-25T00:39:45;100777.31;;;12.20;47.68
69247;BME280;56358;56.328;43.992;2023-04-25T00:41:46;100801.13;;;12.48;47.57
69247;BME280;56358;56.328;43.992;2023-04-25T00:43:48;100828.84;;;12.60;47.20
69247;BME280;56358;56.328;43.992;2023-04-25T00:45:50;100673.47;;;11.85;47.02
69247;BME280;56358;56.328;43.992;2023-04-25T00:47:52;100823.44;;;12.71;46.92
69247;BME280;56358;56.328;43.992;2023-04-25T00:49:53;100803.91;;;12.57;47.12
69247;BME280;56358;56.328;43.992;2023-04-25T00:51:54;100813.69;;;12.70;47.10
69247;BME280;56358;56.328;43.992;2023-04-25T00:53:55;100810.75;;;12.62;47.34
69247;BME280;56358;56.328;43.992;2023-04-25T00:55:55;100818.59;;;12.65;47.30
69247;BME280;56358;56.328;43.992;2023-04-25T00:57:57;100784.97;;;12.48;47.16
69247;BME280;56358;56.328;43.992;2023-04-25T00:59:58;100805.25;;;12.63;47.13
69247;BME280;56358;56.328;43.992;2023-04-25T01:01:59;100798.41;;;12.59;47.17
69247;BME280;56358;56.328;43.992;2023-04-25T01:04:01;100786.09;;;12.45;47.37
69247;BME280;56358;56.328;43.992;2023-04-25T01:06:02;100781.56;;;12.46;47.41
69247;BME280;56358;56.328;43.992;2023-04-25T01:08:03;100815.16;;;12.63;47.55
69247;BME280;56358;56.328;43.992;2023-04-25T01:10:05;100804.53;;;12.61;47.40
69247;BME280;56358;56.328;43.992;2023-04-25T01:12:06;100701.22;;;11.97;47.42
69247;BME280;56358;56.328;43.992;2023-04-25T01:14:07;100806.38;;;12.61;47.49
69247;BME280;56358;56.328;43.992;2023-04-25T01:16:08;100770.34;;;12.40;47.73
69247;BME280;56358;56.328;43.992;2023-04-25T01:18:09;100795.00;;;12.57;47.73
69247;BME280;56358;56.328;43.992;2023-04-25T01:20:11;100769.97;;;12.34;47.93
69247;BME280;56358;56.328;43.992;2023-04-25T01:22:12;100800.38;;;12.57;47.90
69247;BME280;56358;56.328;43.992;2023-04-25T01:24:13;100807.34;;;12.60;47.98
69247;BME280;56358;56.328;43.992;2023-04-25T01:26:14;100797.31;;;12.50;48.10
69247;BME280;56358;56.328;43.992;2023-04-25T01:28:16;100813.81;;;12.46;48.25
69247;BME280;56358;56.328;43.992;2023-04-25T01:30:17;100817.16;;;12.38;48.46
69247;BME280;56358;56.328;43.992;2023-04-25T01:32:18;100807.72;;;12.32;48.80
69247;BME280;56358;56.328;43.992;2023-04-25T01:34:19;100800.28;;;12.24;48.91
69247;BME280;56358;56.328;43.992;2023-04-25T01:36:20;100814.09;;;12.20;48.91
69247;BME280;56358;56.328;43.992;2023-04-25T01:38:22;100786.34;;;11.97;49.35
69247;BME280;56358;56.328;43.992;2023-04-25T01:40:24;100794.03;;;12.01;49.53
69247;BME280;56358;56.328;43.992;2023-04-25T01:42:25;100817.25;;;12.02;50.45
69247;BME280;56358;56.328;43.992;2023-04-25T01:44:25;100808.28;;;11.90;50.26
69247;BME280;56358;56.328;43.992;2023-04-25T01:46:27;100784.22;;;11.78;50.49
69247;BME280;56358;56.328;43.992;2023-04-25T01:48:27;100817.22;;;11.91;50.44
69247;BME280;56358;56.328;43.992;2023-04-25T01:50:28;100842.63;;;11.87;51.37
69247;BME280;56358;56.328;43.992;2023-04-25T01:52:29;100811.47;;;11.84;52.81
69247;BME280;56358;56.328;43.992;2023-04-25T01:54:30;100737.63;;;11.32;52.63
69247;BME280;56358;56.328;43.992;2023-04-25T01:56:32;100793.72;;;11.59;53.52
69247;BME280;56358;56.328;43.992;2023-04-25T01:58:33;100810.66;;;11.60;53.22
69247;BME280;56358;56.328;43.992;2023-04-25T02:00:34;100815.59;;;11.66;53.51
69247;BME280;56358;56.328;43.992;2023-04-25T02:02:35;100834.84;;;11.60;54.33
69247;BME280;56358;56.328;43.992;2023-04-25T02:04:36;100823.72;;;11.53;54.90
69247;BME280;56358;56.328;43.992;2023-04-25T02:06:37;100826.00;;;11.46;55.62
69247;BME280;56358;56.328;43.992;2023-04-25T02:08:37;100821.22;;;11.38;55.84
69247;BME280;56358;56.328;43.992;2023-04-25T02:10:38;100833.91;;;11.36;56.88
69247;BME280;56358;56.328;43.992;2023-04-25T02:12:39;100820.00;;;11.31;57.48
69247;BME280;56358;56.328;43.992;2023-04-25T02:14:40;100837.94;;;11.31;58.05
69247;BME280;56358;56.328;43.992;2023-04-25T02:16:40;100800.03;;;11.11;58.11
69247;BME280;56358;56.328;43.992;2023-04-25T02:18:41;100798.41;;;11.09;59.17
69247;BME280;56358;56.328;43.992;2023-04-25T02:20:43;100818.97;;;11.21;59.18
69247;BME280;56358;56.328;43.992;2023-04-25T02:22:44;100822.72;;;11.18;59.79
69247;BME280;56358;56.328;43.992;2023-04-25T02:24:46;100816.28;;;11.21;59.48
69247;BME280;56358;56.328;43.992;2023-04-25T02:26:46;100767.28;;;10.95;59.05
69247;BME280;56358;56.328;43.992;2023-04-25T02:28:48;100832.56;;;11.31;58.75
69247;BME280;56358;56.328;43.992;2023-04-25T02:30:48;100685.53;;;10.52;57.93
69247;BME280;56358;56.328;43.992;2023-04-25T02:32:49;100833.16;;;11.34;57.59
69247;BME280;56358;56.328;43.992;2023-04-25T02:34:50;100802.53;;;11.26;56.70
69247;BME280;56358;56.328;43.992;2023-04-25T02:36:50;100845.44;;;11.50;56.05
69247;BME280;56358;56.328;43.992;2023-04-25T02:38:51;100835.94;;;11.57;55.18
69247;BME280;56358;56.328;43.992;2023-04-25T02:40:52;100832.16;;;11.60;55.00
69247;BME280;56358;56.328;43.992;2023-04-25T02:42:53;100811.16;;;11.53;54.38
69247;BME280;56358;56.328;43.992;2023-04-25T02:44:53;100837.47;;;11.84;53.82
69247;BME280;56358;56.328;43.992;2023-04-25T02:46:54;100769.56;;;11.59;53.16
69247;BME280;56358;56.328;43.992;2023-04-25T02:48:55;100832.78;;;12.10;53.12
69247;BME280;56358;56.328;43.992;2023-04-25T02:50:55;100833.66;;;12.22;53.71
69247;BME280;56358;56.328;43.992;2023-04-25T02:52:56;100825.94;;;12.29;54.40
69247;BME280;56358;56.328;43.992;2023-04-25T02:54:57;100828.03;;;12.36;54.01
69247;BME280;56358;56.328;43.992;2023-04-25T02:56:58;100820.06;;;12.35;53.89
69247;BME280;56358;56.328;43.992;2023-04-25T02:58:59;100834.00;;;12.51;53.63
69247;BME280;56358;56.328;43.992;2023-04-25T03:00:59;100852.56;;;12.54;53.51
69247;BME280;56358;56.328;43.992;2023-04-25T03:03:00;100805.88;;;12.44;53.08
69247;BME280;56358;56.328;43.992;2023-04-25T03:05:01;100826.88;;;12.62;52.07
69247;BME280;56358;56.328;43.992;2023-04-25T03:07:06;100845.59;;;12.74;51.31
69247;BME280;56358;56.328;43.992;2023-04-25T03:09:06;100860.13;;;12.83;50.97
69247;BME280;56358;56.328;43.992;2023-04-25T03:11:07;100855.81;;;12.92;51.33
69247;BME280;56358;56.328;43.992;2023-04-25T03:13:08;100859.34;;;12.93;51.84
69247;BME280;56358;56.328;43.992;2023-04-25T03:15:09;100845.53;;;12.86;52.04
69247;BME280;56358;56.328;43.992;2023-04-25T03:17:10;100849.59;;;12.80;52.24
69247;BME280;56358;56.328;43.992;2023-04-25T03:19:10;100851.09;;;12.73;52.26
69247;BME280;56358;56.328;43.992;2023-04-25T03:21:11;100787.34;;;12.30;52.84
69247;BME280;56358;56.328;43.992;2023-04-25T03:23:12;100854.53;;;12.64;52.80
69247;BME280;56358;56.328;43.992;2023-04-25T03:25:13;100800.78;;;12.30;53.08
69247;BME280;56358;56.328;43.992;2023-04-25T03:27:14;100848.66;;;12.58;53.21
69247;BME280;56358;56.328;43.992;2023-04-25T03:29:14;100713.66;;;11.76;53.16
69247;BME280;56358;56.328;43.992;2023-04-25T03:31:15;100845.34;;;12.55;53.43
69247;BME280;56358;56.328;43.992;2023-04-25T03:33:16;100842.66;;;12.55;53.35
69247;BME280;56358;56.328;43.992;2023-04-25T03:35:17;100839.13;;;12.54;53.38
69247;BME280;56358;56.328;43.992;2023-04-25T03:37:17;100843.03;;;12.62;53.22
69247;BME280;56358;56.328;43.992;2023-04-25T03:39:18;100828.13;;;12.57;53.06
69247;BME280;56358;56.328;43.992;2023-04-25T03:41:19;100819.47;;;12.54;52.74
69247;BME280;56358;56.328;43.992;2023-04-25T03:43:20;100836.31;;;12.67;52.37
69247;BME280;56358;56.328;43.992;2023-04-25T03:45:21;100844.47;;;12.77;52.03
69247;BME280;56358;56.328;43.992;2023-04-25T03:47:21;100837.25;;;12.78;52.19
69247;BME280;56358;56.328;43.992;2023-04-25T03:49:22;100840.69;;;12.80;52.23
69247;BME280;56358;56.328;43.992;2023-04-25T03:51:23;100846.69;;;12.83;52.15
69247;BME280;56358;56.328;43.992;2023-04-25T03:53:24;100839.19;;;12.87;52.11
69247;BME280;56358;56.328;43.992;2023-04-25T03:55:24;100782.88;;;12.63;51.99
69247;BME280;56358;56.328;43.992;2023-04-25T03:57:25;100831.47;;;13.05;51.37
69247;BME280;56358;56.328;43.992;2023-04-25T03:59:26;100819.31;;;13.11;49.84
69247;BME280;56358;56.328;43.992;2023-04-25T04:01:27;100820.75;;;13.26;49.68
69247;BME280;56358;56.328;43.992;2023-04-25T04:03:27;100745.50;;;12.92;48.98
69247;BME280;56358;56.328;43.992;2023-04-25T04:05:28;100829.94;;;13.56;48.59
69247;BME280;56358;56.328;43.992;2023-04-25T04:07:29;100774.28;;;13.34;48.48
69247;BME280;56358;56.328;43.992;2023-04-25T04:09:30;100840.03;;;13.85;48.85
69247;BME280;56358;56.328;43.992;2023-04-25T04:11:30;100836.53;;;13.94;49.74
69247;BME280;56358;56.328;43.992;2023-04-25T04:13:32;100846.53;;;14.03;49.38
69247;BME280;56358;56.328;43.992;2023-04-25T04:15:33;100838.63;;;14.12;49.45
69247;BME280;56358;56.328;43.992;2023-04-25T04:17:34;100831.59;;;14.20;49.09
69247;BME280;56358;56.328;43.992;2023-04-25T04:19:35;100813.78;;;14.08;49.06
69247;BME280;56358;56.328;43.992;2023-04-25T04:21:36;100842.41;;;14.30;49.26
69247;BME280;56358;56.328;43.992;2023-04-25T04:23:37;100841.16;;;14.34;48.91
69247;BME280;56358;56.328;43.992;2023-04-25T04:25:37;100836.06;;;14.41;48.73
69247;BME280;56358;56.328;43.992;2023-04-25T04:27:40;100829.41;;;14.45;48.16
69247;BME280;56358;56.328;43.992;2023-04-25T04:29:41;100750.91;;;14.07;48.47
69247;BME280;56358;56.328;43.992;2023-04-25T04:31:41;100776.69;;;14.21;48.31
69247;BME280;56358;56.328;43.992;2023-04-25T04:33:42;100827.31;;;14.58;48.15
69247;BME280;56358;56.328;43.992;2023-04-25T04:35:43;100775.13;;;14.29;48.71
69247;BME280;56358;56.328;43.992;2023-04-25T04:37:43;100743.19;;;14.24;48.58
69247;BME280;56358;56.328;43.992;2023-04-25T04:39:46;100814.34;;;14.73;48.60
69247;BME280;56358;56.328;43.992;2023-04-25T04:41:46;100835.97;;;14.93;47.74
69247;BME280;56358;56.328;43.992;2023-04-25T04:43:47;100836.13;;;15.01;47.09
69247;BME280;56358;56.328;43.992;2023-04-25T04:45:48;100807.97;;;14.94;46.70
69247;BME280;56358;56.328;43.992;2023-04-25T04:47:50;100826.31;;;15.20;46.57
69247;BME280;56358;56.328;43.992;2023-04-25T04:49:51;100836.59;;;15.26;46.53
69247;BME280;56358;56.328;43.992;2023-04-25T04:51:52;100826.75;;;15.35;46.27
69247;BME280;56358;56.328;43.992;2023-04-25T04:53:54;100760.38;;;15.03;45.97
69247;BME280;56358;56.328;43.992;2023-04-25T04:55:58;100817.94;;;15.42;45.88
69247;BME280;56358;56.328;43.992;2023-04-25T04:57:59;100824.06;;;15.54;45.45
69247;BME280;56358;56.328;43.992;2023-04-25T05:00:00;100843.53;;;15.68;45.07
69247;BME280;56358;56.328;43.992;2023-04-25T05:02:01;100826.31;;;15.69;44.31
69247;BME280;56358;56.328;43.992;2023-04-25T05:04:01;100827.44;;;15.76;44.50
69247;BME280;56358;56.328;43.992;2023-04-25T05:06:03;100835.69;;;15.74;44.32
69247;BME280;56358;56.328;43.992;2023-04-25T05:08:04;100769.47;;;15.41;44.56
69247;BME280;56358;56.328;43.992;2023-04-25T05:10:06;100815.06;;;15.73;44.42
69247;BME280;56358;56.328;43.992;2023-04-25T05:12:07;100827.44;;;15.86;44.10
69247;BME280;56358;56.328;43.992;2023-04-25T05:14:07;100827.44;;;15.96;43.75
69247;BME280;56358;56.328;43.992;2023-04-25T05:16:08;100806.06;;;15.92;43.51
69247;BME280;56358;56.328;43.992;2023-04-25T05:18:08;100811.16;;;16.05;43.13
69247;BME280;56358;56.328;43.992;2023-04-25T05:20:09;100822.50;;;16.19;43.44
69247;BME280;56358;56.328;43.992;2023-04-25T05:22:10;100816.13;;;16.20;43.17
69247;BME280;56358;56.328;43.992;2023-04-25T05:24:11;100821.03;;;16.34;42.77
69247;BME280;56358;56.328;43.992;2023-04-25T05:26:12;100828.69;;;16.39;42.38
69247;BME280;56358;56.328;43.992;2023-04-25T05:28:14;100829.41;;;16.41;42.53
69247;BME280;56358;56.328;43.992;2023-04-25T05:30:14;100820.69;;;16.47;42.68
69247;BME280;56358;56.328;43.992;2023-04-25T05:32:15;100812.56;;;16.47;42.36
69247;BME280;56358;56.328;43.992;2023-04-25T05:34:16;100771.22;;;16.27;42.46
69247;BME280;56358;56.328;43.992;2023-04-25T05:36:18;100768.34;;;16.29;42.41
69247;BME280;56358;56.328;43.992;2023-04-25T05:38:19;100806.41;;;16.55;42.10
69247;BME280;56358;56.328;43.992;2023-04-25T05:40:20;100822.16;;;16.69;41.80
69247;BME280;56358;56.328;43.992;2023-04-25T05:42:21;100806.66;;;16.62;42.43
69247;BME280;56358;56.328;43.992;2023-04-25T05:44:21;100801.47;;;16.68;42.38
69247;BME280;56358;56.328;43.992;2023-04-25T05:46:22;100822.31;;;16.86;41.48
69247;BME280;56358;56.328;43.992;2023-04-25T05:48:23;100820.03;;;16.91;41.12
69247;BME280;56358;56.328;43.992;2023-04-25T05:50:23;100825.94;;;17.04;41.17
69247;BME280;56358;56.328;43.992;2023-04-25T05:52:24;100809.06;;;16.92;41.01
69247;BME280;56358;56.328;43.992;2023-04-25T05:54:25;100830.03;;;17.08;41.11
69247;BME280;56358;56.328;43.992;2023-04-25T05:56:26;100800.25;;;17.08;40.52
69247;BME280;56358;56.328;43.992;2023-04-25T05:58:27;100815.47;;;17.28;40.17
69247;BME280;56358;56.328;43.992;2023-04-25T06:00:27;100831.13;;;17.34;40.07
69247;BME280;56358;56.328;43.992;2023-04-25T06:02:28;100816.66;;;17.43;39.73
69247;BME280;56358;56.328;43.992;2023-04-25T06:04:29;100817.56;;;17.52;39.38
69247;BME280;56358;56.328;43.992;2023-04-25T06:06:30;100813.28;;;17.49;39.31
69247;BME280;56358;56.328;43.992;2023-04-25T06:08:31;100816.22;;;17.56;39.35
69247;BME280;56358;56.328;43.992;2023-04-25T06:10:32;100830.50;;;17.58;39.08
69247;BME280;56358;56.328;43.992;2023-04-25T06:12:33;100823.75;;;17.62;38.82
69247;BME280;56358;56.328;43.992;2023-04-25T06:14:34;100753.50;;;17.24;39.23
69247;BME280;56358;56.328;43.992;2023-04-25T06:16:35;100733.91;;;17.31;38.99
69247;BME280;56358;56.328;43.992;2023-04-25T06:18:35;100816.97;;;17.84;39.39
69247;BME280;56358;56.328;43.992;2023-04-25T06:20:36;100799.03;;;17.91;39.64
69247;BME280;56358;56.328;43.992;2023-04-25T06:22:37;100797.78;;;18.04;39.21
69247;BME280;56358;56.328;43.992;2023-04-25T06:24:38;100800.31;;;18.05;39.24
69247;BME280;56358;56.328;43.992;2023-04-25T06:26:38;100800.53;;;18.12;39.88
69247;BME280;56358;56.328;43.992;2023-04-25T06:28:39;100769.06;;;17.93;40.19
69247;BME280;56358;56.328;43.992;2023-04-25T06:30:40;100809.53;;;18.13;39.46
69247;BME280;56358;56.328;43.992;2023-04-25T06:32:41;100800.69;;;18.11;40.20
69247;BME280;56358;56.328;43.992;2023-04-25T06:34:42;100793.22;;;18.04;39.90
69247;BME280;56358;56.328;43.992;2023-04-25T06:36:42;100795.22;;;18.02;39.88
69247;BME280;56358;56.328;43.992;2023-04-25T06:38:44;100792.56;;;18.11;37.77
69247;BME280;56358;56.328;43.992;2023-04-25T06:40:45;100797.06;;;18.28;37.67
69247;BME280;56358;56.328;43.992;2023-04-25T06:42:46;100778.78;;;18.38;38.45
69247;BME280;56358;56.328;43.992;2023-04-25T06:44:47;100799.06;;;18.61;39.41
69247;BME280;56358;56.328;43.992;2023-04-25T06:46:48;100735.16;;;18.23;39.41
69247;BME280;56358;56.328;43.992;2023-04-25T06:48:48;100732.94;;;18.27;38.67
69247;BME280;56358;56.328;43.992;2023-04-25T06:50:49;100783.47;;;18.71;36.33
69247;BME280;56358;56.328;43.992;2023-04-25T06:52:50;100785.19;;;18.80;36.26
69247;BME280;56358;56.328;43.992;2023-04-25T06:54:50;100781.88;;;19.03;34.27
69247;BME280;56358;56.328;43.992;2023-04-25T06:56:51;100802.25;;;19.23;34.25
69247;BME280;56358;56.328;43.992;2023-04-25T06:58:52;100782.75;;;19.45;33.32
69247;BME280;56358;56.328;43.992;2023-04-25T07:00:53;100782.56;;;19.63;32.50
69247;BME280;56358;56.328;43.992;2023-04-25T07:02:53;100753.69;;;19.53;32.28
69247;BME280;56358;56.328;43.992;2023-04-25T07:04:54;100780.00;;;19.77;32.02
69247;BME280;56358;56.328;43.992;2023-04-25T07:06:59;100759.63;;;19.65;31.70
69247;BME280;56358;56.328;43.992;2023-04-25T07:09:02;100756.88;;;19.57;31.80
69247;BME280;56358;56.328;43.992;2023-04-25T07:11:03;100727.38;;;19.37;31.68
69247;BME280;56358;56.328;43.992;2023-04-25T07:13:04;100781.38;;;19.82;32.01
69247;BME280;56358;56.328;43.992;2023-04-25T07:15:05;100783.91;;;19.91;31.54
69247;BME280;56358;56.328;43.992;2023-04-25T07:17:08;100792.38;;;19.97;31.44
69247;BME280;56358;56.328;43.992;2023-04-25T07:19:09;100785.06;;;19.97;31.59
69247;BME280;56358;56.328;43.992;2023-04-25T07:21:10;100749.53;;;19.99;31.66
69247;BME280;56358;56.328;43.992;2023-04-25T07:23:10;100766.00;;;20.14;30.89
69247;BME280;56358;56.328;43.992;2023-04-25T07:25:11;100775.09;;;20.29;31.03
69247;BME280;56358;56.328;43.992;2023-04-25T07:27:12;100770.31;;;20.39;31.45
69247;BME280;56358;56.328;43.992;2023-04-25T07:29:12;100742.09;;;20.32;31.13
69247;BME280;56358;56.328;43.992;2023-04-25T07:31:13;100767.63;;;20.63;30.86
69247;BME280;56358;56.328;43.992;2023-04-25T07:33:14;100772.41;;;20.69;30.86
69247;BME280;56358;56.328;43.992;2023-04-25T07:35:14;100766.84;;;20.85;30.75
69247;BME280;56358;56.328;43.992;2023-04-25T07:37:15;100772.53;;;20.99;30.18
69247;BME280;56358;56.328;43.992;2023-04-25T07:39:16;100773.53;;;21.06;30.42
69247;BME280;56358;56.328;43.992;2023-04-25T07:41:18;100767.81;;;21.16;30.45
69247;BME280;56358;56.328;43.992;2023-04-25T07:43:18;100766.63;;;21.18;30.36
69247;BME280;56358;56.328;43.992;2023-04-25T07:45:19;100765.81;;;21.33;30.29
69247;BME280;56358;56.328;43.992;2023-04-25T07:47:20;100754.34;;;21.37;29.95
69247;BME280;56358;56.328;43.992;2023-04-25T07:49:21;100719.84;;;21.06;29.78
69247;BME280;56358;56.328;43.992;2023-04-25T07:51:21;100766.66;;;21.56;29.13
69247;BME280;56358;56.328;43.992;2023-04-25T07:53:22;100749.97;;;21.51;29.08
69247;BME280;56358;56.328;43.992;2023-04-25T07:55:23;100756.22;;;21.60;28.99
69247;BME280;56358;56.328;43.992;2023-04-25T07:57:24;100692.06;;;21.11;28.52
69247;BME280;56358;56.328;43.992;2023-04-25T07:59:25;100748.06;;;21.37;28.76
69247;BME280;56358;56.328;43.992;2023-04-25T08:01:25;100686.19;;;20.99;28.53
69247;BME280;56358;56.328;43.992;2023-04-25T08:03:27;100747.19;;;21.36;28.72
69247;BME280;56358;56.328;43.992;2023-04-25T08:05:28;100739.78;;;21.30;28.38
69247;BME280;56358;56.328;43.992;2023-04-25T08:07:29;100672.81;;;20.89;28.40
69247;BME280;56358;56.328;43.992;2023-04-25T08:09:30;100635.63;;;20.73;28.35
69247;BME280;56358;56.328;43.992;2023-04-25T08:11:36;100737.59;;;21.40;28.57
69247;BME280;56358;56.328;43.992;2023-04-25T08:13:37;100749.75;;;21.61;28.39
69247;BME280;56358;56.328;43.992;2023-04-25T08:15:38;100735.63;;;21.57;28.31
69247;BME280;56358;56.328;43.992;2023-04-25T08:17:39;100725.00;;;21.63;27.95
69247;BME280;56358;56.328;43.992;2023-04-25T08:19:39;100724.25;;;21.69;27.91
69247;BME280;56358;56.328;43.992;2023-04-25T08:21:40;100721.88;;;21.66;28.15
69247;BME280;56358;56.328;43.992;2023-04-25T08:23:41;100721.44;;;21.62;28.18
69247;BME280;56358;56.328;43.992;2023-04-25T08:25:42;100724.22;;;21.54;28.52
69247;BME280;56358;56.328;43.992;2023-04-25T08:27:43;100724.88;;;21.56;28.61
69247;BME280;56358;56.328;43.992;2023-04-25T08:29:44;100718.91;;;21.52;28.21
69247;BME280;56358;56.328;43.992;2023-04-25T08:31:44;100717.84;;;21.62;28.29
69247;BME280;56358;56.328;43.992;2023-04-25T08:33:45;100707.69;;;21.55;28.09
69247;BME280;56358;56.328;43.992;2023-04-25T08:35:46;100721.50;;;21.54;27.95
69247;BME280;56358;56.328;43.992;2023-04-25T08:37:47;100708.38;;;21.49;28.05
69247;BME280;56358;56.328;43.992;2023-04-25T08:39:49;100712.19;;;21.63;27.93
69247;BME280;56358;56.328;43.992;2023-04-25T08:41:52;100711.75;;;21.74;27.91
69247;BME280;56358;56.328;43.992;2023-04-25T08:43:53;100654.44;;;21.74;27.63
69247;BME280;56358;56.328;43.992;2023-04-25T08:45:59;100701.75;;;21.97;27.62
69247;BME280;56358;56.328;43.992;2023-04-25T08:48:00;100693.84;;;21.87;27.77
69247;BME280;56358;56.328;43.992;2023-04-25T08:50:04;100639.41;;;21.64;27.69
69247;BME280;56358;56.328;43.992;2023-04-25T08:52:05;100695.06;;;21.99;27.34
69247;BME280;56358;56.328;43.992;2023-04-25T08:54:11;100688.09;;;21.97;27.26
69247;BME280;56358;56.328;43.992;2023-04-25T08:56:12;100687.56;;;21.86;27.48
69247;BME280;56358;56.328;43.992;2023-04-25T08:58:18;100671.00;;;21.73;27.47
69247;BME280;56358;56.328;43.992;2023-04-25T09:00:18;100667.69;;;21.92;27.28
69247;BME280;56358;56.328;43.992;2023-04-25T09:02:20;100692.97;;;22.16;27.08
69247;BME280;56358;56.328;43.992;2023-04-25T09:04:21;100691.63;;;22.42;26.94
69247;BME280;56358;56.328;43.992;2023-04-25T09:06:23;100662.25;;;22.44;26.46
69247;BME280;56358;56.328;43.992;2023-04-25T09:08:24;100641.50;;;22.13;26.59
69247;BME280;56358;56.328;43.992;2023-04-25T09:10:24;100699.63;;;22.43;26.32
69247;BME280;56358;56.328;43.992;2023-04-25T09:12:25;100685.34;;;22.41;26.28
69247;BME280;56358;56.328;43.992;2023-04-25T09:14:28;100681.81;;;22.33;26.35
69247;BME280;56358;56.328;43.992;2023-04-25T09:16:28;100572.75;;;21.43;27.07
69247;BME280;56358;56.328;43.992;2023-04-25T09:18:31;100684.03;;;22.07;27.41
69247;BME280;56358;56.328;43.992;2023-04-25T09:20:32;100673.16;;;21.77;27.37
69247;BME280;56358;56.328;43.992;2023-04-25T09:22:41;100692.16;;;21.71;27.53
69247;BME280;56358;56.328;43.992;2023-04-25T09:24:44;100694.69;;;21.57;28.05
69247;BME280;56358;56.328;43.992;2023-04-25T09:26:46;100679.91;;;21.52;28.08
69247;BME280;56358;56.328;43.992;2023-04-25T09:28:48;100683.44;;;21.37;28.42
69247;BME280;56358;56.328;43.992;2023-04-25T09:30:49;100615.72;;;20.73;28.72
69247;BME280;56358;56.328;43.992;2023-04-25T09:32:49;100678.59;;;21.09;28.79
69247;BME280;56358;56.328;43.992;2023-04-25T09:34:57;100663.59;;;20.90;28.78
69247;BME280;56358;56.328;43.992;2023-04-25T09:37:01;100680.84;;;21.06;29.08
69247;BME280;56358;56.328;43.992;2023-04-25T09:39:02;100675.34;;;21.29;28.62
69247;BME280;56358;56.328;43.992;2023-04-25T09:41:04;100683.16;;;21.47;28.79
69247;BME280;56358;56.328;43.992;2023-04-25T09:43:10;100674.72;;;21.42;28.75
69247;BME280;56358;56.328;43.992;2023-04-25T09:45:18;100677.81;;;21.39;28.87
69247;BME280;56358;56.328;43.992;2023-04-25T09:47:20;100670.09;;;21.42;28.81
69247;BME280;56358;56.328;43.992;2023-04-25T09:49:24;100672.84;;;21.42;29.01
69247;BME280;56358;56.328;43.992;2023-04-25T09:51:26;100668.50;;;21.48;29.26
69247;BME280;56358;56.328;43.992;2023-04-25T09:53:28;100515.97;;;20.49;29.30
69247;BME280;56358;56.328;43.992;2023-04-25T09:55:29;100669.16;;;21.35;29.18
69247;BME280;56358;56.328;43.992;2023-04-25T09:57:30;100633.94;;;21.10;29.37
69247;BME280;56358;56.328;43.992;2023-04-25T09:59:33;100636.69;;;21.10;29.53
69247;BME280;56358;56.328;43.992;2023-04-25T10:01:39;100682.63;;;21.37;29.44
69247;BME280;56358;56.328;43.992;2023-04-25T10:03:40;100673.25;;;21.16;29.84
69247;BME280;56358;56.328;43.992;2023-04-25T10:05:43;100607.06;;;20.69;30.00
69247;BME280;56358;56.328;43.992;2023-04-25T10:07:43;100677.56;;;21.10;29.99
69247;BME280;56358;56.328;43.992;2023-04-25T10:09:47;100677.91;;;20.92;30.18
69247;BME280;56358;56.328;43.992;2023-04-25T10:11:48;100653.50;;;20.76;30.39
69247;BME280;56358;56.328;43.992;2023-04-25T10:13:51;100633.19;;;20.55;30.09
69247;BME280;56358;56.328;43.992;2023-04-25T10:15:53;100666.09;;;20.77;30.57
69247;BME280;56358;56.328;43.992;2023-04-25T10:17:54;100662.59;;;20.60;30.38
69247;BME280;56358;56.328;43.992;2023-04-25T10:19:57;100661.28;;;20.56;30.35
69247;BME280;56358;56.328;43.992;2023-04-25T10:22:13;100642.16;;;20.41;30.79
69247;BME280;56358;56.328;43.992;2023-04-25T10:24:15;100656.63;;;20.41;30.66
69247;BME280;56358;56.328;43.992;2023-04-25T10:26:17;100606.63;;;20.11;30.53